El Galpon, Argentina
Current Conditions -  °F | °C
As of 7:00 AM on Thursday 23 Oct 2014 (Local Time) from SASA Reporting Station
Clear Clear  
Wind Chill: 14°   Ceiling: Unl
Heat Index: 14°   Visibility: 6mi
Dew Point: 12°   Wind: 2mph
Humidity: 88%   Direction: 230°SW
Pressure: 30.15"   Gusts: NA
Location:  25.38°S, 64.63°W
Report Text: SASA 231000Z 23002KT CAVOK 14/12 Q1021
Loading
Personal Weather Stations






























Interactive Weather Map
Tropical Storm Tracking
New forecast layout! Learn more

10-Day Weather Forecast

Advertisements
Track Severe Weather on mobile